sensor_id;sensor_type;location;lat;lon;timestamp;temperature;humidity
8103;DHT22;4094;49.948;11.574;2023-11-19T00:00:52;8.40;75.30
8103;DHT22;4094;49.948;11.574;2023-11-19T00:03:21;8.40;75.30
8103;DHT22;4094;49.948;11.574;2023-11-19T00:05:51;8.40;75.40
8103;DHT22;4094;49.948;11.574;2023-11-19T00:08:22;8.40;75.40
8103;DHT22;4094;49.948;11.574;2023-11-19T00:10:52;8.40;75.50
8103;DHT22;4094;49.948;11.574;2023-11-19T00:13:21;8.40;75.50
8103;DHT22;4094;49.948;11.574;2023-11-19T00:15:51;8.40;75.60
8103;DHT22;4094;49.948;11.574;2023-11-19T00:18:20;8.40;75.50
8103;DHT22;4094;49.948;11.574;2023-11-19T00:20:50;8.40;75.60
8103;DHT22;4094;49.948;11.574;2023-11-19T00:23:19;8.40;75.70
8103;DHT22;4094;49.948;11.574;2023-11-19T00:25:49;8.40;75.70
8103;DHT22;4094;49.948;11.574;2023-11-19T00:28:18;8.40;75.80
8103;DHT22;4094;49.948;11.574;2023-11-19T00:30:47;8.50;75.80
8103;DHT22;4094;49.948;11.574;2023-11-19T00:33:17;8.50;75.80
8103;DHT22;4094;49.948;11.574;2023-11-19T00:35:46;8.50;75.90
8103;DHT22;4094;49.948;11.574;2023-11-19T00:38:15;8.50;75.90
8103;DHT22;4094;49.948;11.574;2023-11-19T00:40:44;8.50;76.10
8103;DHT22;4094;49.948;11.574;2023-11-19T00:43:14;8.50;76.50
8103;DHT22;4094;49.948;11.574;2023-11-19T00:45:44;8.50;76.50
8103;DHT22;4094;49.948;11.574;2023-11-19T00:48:12;8.60;76.50
8103;DHT22;4094;49.948;11.574;2023-11-19T00:50:42;8.60;76.50
8103;DHT22;4094;49.948;11.574;2023-11-19T00:53:13;8.60;76.50
8103;DHT22;4094;49.948;11.574;2023-11-19T00:55:42;8.60;76.60
8103;DHT22;4094;49.948;11.574;2023-11-19T00:58:15;8.60;77.30
8103;DHT22;4094;49.948;11.574;2023-11-19T01:00:45;8.60;76.50
8103;DHT22;4094;49.948;11.574;2023-11-19T01:03:14;8.70;76.50
8103;DHT22;4094;49.948;11.574;2023-11-19T01:05:44;8.70;76.40
8103;DHT22;4094;49.948;11.574;2023-11-19T01:08:14;8.70;76.50
8103;DHT22;4094;49.948;11.574;2023-11-19T01:10:44;8.70;76.60
8103;DHT22;4094;49.948;11.574;2023-11-19T01:13:13;8.70;76.50
8103;DHT22;4094;49.948;11.574;2023-11-19T01:15:44;8.70;76.60
8103;DHT22;4094;49.948;11.574;2023-11-19T01:18:13;8.70;76.60
8103;DHT22;4094;49.948;11.574;2023-11-19T01:20:42;8.70;76.80
8103;DHT22;4094;49.948;11.574;2023-11-19T01:23:11;8.70;77.20
8103;DHT22;4094;49.948;11.574;2023-11-19T01:25:41;8.80;77.20
8103;DHT22;4094;49.948;11.574;2023-11-19T01:28:11;8.80;77.10
8103;DHT22;4094;49.948;11.574;2023-11-19T01:30:40;8.80;77.10
8103;DHT22;4094;49.948;11.574;2023-11-19T01:33:11;8.80;77.10
8103;DHT22;4094;49.948;11.574;2023-11-19T01:35:40;8.90;77.00
8103;DHT22;4094;49.948;11.574;2023-11-19T01:38:10;8.90;76.90
8103;DHT22;4094;49.948;11.574;2023-11-19T01:40:38;8.90;76.90
8103;DHT22;4094;49.948;11.574;2023-11-19T01:43:07;8.90;76.80
8103;DHT22;4094;49.948;11.574;2023-11-19T01:45:39;8.90;76.60
8103;DHT22;4094;49.948;11.574;2023-11-19T01:48:10;8.90;76.70
8103;DHT22;4094;49.948;11.574;2023-11-19T01:50:39;9.00;76.70
8103;DHT22;4094;49.948;11.574;2023-11-19T01:53:09;9.00;76.60
8103;DHT22;4094;49.948;11.574;2023-11-19T01:55:38;9.00;76.80
8103;DHT22;4094;49.948;11.574;2023-11-19T01:58:08;9.00;76.80
8103;DHT22;4094;49.948;11.574;2023-11-19T02:00:37;9.00;76.80
8103;DHT22;4094;49.948;11.574;2023-11-19T02:03:06;9.00;76.80
8103;DHT22;4094;49.948;11.574;2023-11-19T02:05:39;9.00;76.90
8103;DHT22;4094;49.948;11.574;2023-11-19T02:08:08;9.00;77.00
8103;DHT22;4094;49.948;11.574;2023-11-19T02:10:37;9.00;77.00
8103;DHT22;4094;49.948;11.574;2023-11-19T02:13:07;9.00;77.10
8103;DHT22;4094;49.948;11.574;2023-11-19T02:15:38;9.00;77.20
8103;DHT22;4094;49.948;11.574;2023-11-19T02:18:19;9.00;77.70
8103;DHT22;4094;49.948;11.574;2023-11-19T02:20:51;9.00;77.40
8103;DHT22;4094;49.948;11.574;2023-11-19T02:23:20;9.00;77.30
8103;DHT22;4094;49.948;11.574;2023-11-19T02:26:00;9.00;77.30
8103;DHT22;4094;49.948;11.574;2023-11-19T02:28:33;9.00;77.40
8103;DHT22;4094;49.948;11.574;2023-11-19T02:31:03;9.10;77.40
8103;DHT22;4094;49.948;11.574;2023-11-19T02:33:33;9.10;77.40
8103;DHT22;4094;49.948;11.574;2023-11-19T02:36:03;9.10;77.40
8103;DHT22;4094;49.948;11.574;2023-11-19T02:38:33;9.10;77.50
8103;DHT22;4094;49.948;11.574;2023-11-19T02:41:04;9.10;77.40
8103;DHT22;4094;49.948;11.574;2023-11-19T02:43:37;9.10;77.50
8103;DHT22;4094;49.948;11.574;2023-11-19T02:46:07;9.10;77.50
8103;DHT22;4094;49.948;11.574;2023-11-19T02:48:39;9.10;77.60
8103;DHT22;4094;49.948;11.574;2023-11-19T02:51:09;9.10;77.70
8103;DHT22;4094;49.948;11.574;2023-11-19T02:53:39;9.10;77.60
8103;DHT22;4094;49.948;11.574;2023-11-19T02:56:08;9.10;77.60
8103;DHT22;4094;49.948;11.574;2023-11-19T02:58:49;9.20;77.60
8103;DHT22;4094;49.948;11.574;2023-11-19T03:01:22;9.10;77.50
8103;DHT22;4094;49.948;11.574;2023-11-19T03:03:59;9.10;77.50
8103;DHT22;4094;49.948;11.574;2023-11-19T03:06:31;9.20;77.50
8103;DHT22;4094;49.948;11.574;2023-11-19T03:09:01;9.10;77.50
8103;DHT22;4094;49.948;11.574;2023-11-19T03:11:34;9.10;77.50
8103;DHT22;4094;49.948;11.574;2023-11-19T03:14:04;9.20;77.50
8103;DHT22;4094;49.948;11.574;2023-11-19T03:16:34;9.20;77.60
8103;DHT22;4094;49.948;11.574;2023-11-19T03:19:04;9.20;77.80
8103;DHT22;4094;49.948;11.574;2023-11-19T03:21:34;9.10;77.70
8103;DHT22;4094;49.948;11.574;2023-11-19T03:24:05;9.10;77.90
8103;DHT22;4094;49.948;11.574;2023-11-19T03:26:35;9.20;78.20
8103;DHT22;4094;49.948;11.574;2023-11-19T03:29:06;9.10;78.20
8103;DHT22;4094;49.948;11.574;2023-11-19T03:31:35;9.10;78.30
8103;DHT22;4094;49.948;11.574;2023-11-19T03:34:04;9.20;78.40
8103;DHT22;4094;49.948;11.574;2023-11-19T03:36:32;9.20;78.40
8103;DHT22;4094;49.948;11.574;2023-11-19T03:39:02;9.20;78.30
8103;DHT22;4094;49.948;11.574;2023-11-19T03:41:32;9.30;78.30
8103;DHT22;4094;49.948;11.574;2023-11-19T03:44:04;9.20;78.20
8103;DHT22;4094;49.948;11.574;2023-11-19T03:46:34;9.30;78.30
8103;DHT22;4094;49.948;11.574;2023-11-19T03:49:04;9.30;78.20
8103;DHT22;4094;49.948;11.574;2023-11-19T03:51:35;9.30;78.20
8103;DHT22;4094;49.948;11.574;2023-11-19T03:54:06;9.30;78.30
8103;DHT22;4094;49.948;11.574;2023-11-19T03:56:35;9.30;78.20
8103;DHT22;4094;49.948;11.574;2023-11-19T03:59:05;9.30;78.10
8103;DHT22;4094;49.948;11.574;2023-11-19T04:01:36;9.30;78.10
8103;DHT22;4094;49.948;11.574;2023-11-19T04:04:06;9.30;78.30
8103;DHT22;4094;49.948;11.574;2023-11-19T04:06:35;9.30;78.20
8103;DHT22;4094;49.948;11.574;2023-11-19T04:09:04;9.30;78.20
8103;DHT22;4094;49.948;11.574;2023-11-19T04:11:35;9.40;78.30
8103;DHT22;4094;49.948;11.574;2023-11-19T04:14:04;9.40;78.30
8103;DHT22;4094;49.948;11.574;2023-11-19T04:16:35;9.40;78.30
8103;DHT22;4094;49.948;11.574;2023-11-19T04:19:04;9.40;78.20
8103;DHT22;4094;49.948;11.574;2023-11-19T04:21:34;9.40;78.30
8103;DHT22;4094;49.948;11.574;2023-11-19T04:24:03;9.40;78.40
8103;DHT22;4094;49.948;11.574;2023-11-19T04:26:32;9.40;78.40
8103;DHT22;4094;49.948;11.574;2023-11-19T04:29:02;9.40;78.60
8103;DHT22;4094;49.948;11.574;2023-11-19T04:31:31;9.40;78.60
8103;DHT22;4094;49.948;11.574;2023-11-19T04:34:01;9.40;78.60
8103;DHT22;4094;49.948;11.574;2023-11-19T04:36:31;9.50;78.60
8103;DHT22;4094;49.948;11.574;2023-11-19T04:39:01;9.50;78.60
8103;DHT22;4094;49.948;11.574;2023-11-19T04:41:30;9.50;78.60
8103;DHT22;4094;49.948;11.574;2023-11-19T04:43:59;9.50;78.70
8103;DHT22;4094;49.948;11.574;2023-11-19T04:46:28;9.50;78.70
8103;DHT22;4094;49.948;11.574;2023-11-19T04:48:57;9.50;78.60
8103;DHT22;4094;49.948;11.574;2023-11-19T04:51:28;9.50;78.60
8103;DHT22;4094;49.948;11.574;2023-11-19T04:53:57;9.50;78.60
8103;DHT22;4094;49.948;11.574;2023-11-19T04:56:25;9.50;78.70
8103;DHT22;4094;49.948;11.574;2023-11-19T04:58:54;9.60;78.70
8103;DHT22;4094;49.948;11.574;2023-11-19T05:01:23;9.50;78.60
8103;DHT22;4094;49.948;11.574;2023-11-19T05:03:52;9.50;78.70
8103;DHT22;4094;49.948;11.574;2023-11-19T05:06:21;9.60;78.90
8103;DHT22;4094;49.948;11.574;2023-11-19T05:08:52;9.50;78.90
8103;DHT22;4094;49.948;11.574;2023-11-19T05:11:22;9.50;78.90
8103;DHT22;4094;49.948;11.574;2023-11-19T05:13:50;9.50;79.00
8103;DHT22;4094;49.948;11.574;2023-11-19T05:16:20;9.50;79.00
8103;DHT22;4094;49.948;11.574;2023-11-19T05:18:49;9.50;79.10
8103;DHT22;4094;49.948;11.574;2023-11-19T05:21:17;9.50;79.20
8103;DHT22;4094;49.948;11.574;2023-11-19T05:23:46;9.50;79.30
8103;DHT22;4094;49.948;11.574;2023-11-19T05:26:21;9.50;79.40
8103;DHT22;4094;49.948;11.574;2023-11-19T05:28:51;9.60;79.40
8103;DHT22;4094;49.948;11.574;2023-11-19T05:31:20;9.60;79.40
8103;DHT22;4094;49.948;11.574;2023-11-19T05:33:49;9.60;79.40
8103;DHT22;4094;49.948;11.574;2023-11-19T05:36:19;9.60;79.40
8103;DHT22;4094;49.948;11.574;2023-11-19T05:38:48;9.60;79.40
8103;DHT22;4094;49.948;11.574;2023-11-19T05:41:18;9.70;79.50
8103;DHT22;4094;49.948;11.574;2023-11-19T05:43:48;9.70;79.50
8103;DHT22;4094;49.948;11.574;2023-11-19T05:46:17;9.70;79.50
8103;DHT22;4094;49.948;11.574;2023-11-19T05:48:48;9.70;79.50
8103;DHT22;4094;49.948;11.574;2023-11-19T05:51:17;9.70;79.50
8103;DHT22;4094;49.948;11.574;2023-11-19T05:53:48;9.70;79.60
8103;DHT22;4094;49.948;11.574;2023-11-19T05:56:18;9.70;79.60
8103;DHT22;4094;49.948;11.574;2023-11-19T05:58:51;9.70;79.70
8103;DHT22;4094;49.948;11.574;2023-11-19T06:01:19;9.70;79.80
8103;DHT22;4094;49.948;11.574;2023-11-19T06:03:49;9.80;79.90
8103;DHT22;4094;49.948;11.574;2023-11-19T06:06:19;9.80;79.90
8103;DHT22;4094;49.948;11.574;2023-11-19T06:08:48;9.80;80.10
8103;DHT22;4094;49.948;11.574;2023-11-19T06:11:18;9.80;80.20
8103;DHT22;4094;49.948;11.574;2023-11-19T06:13:48;9.80;80.20
8103;DHT22;4094;49.948;11.574;2023-11-19T06:16:19;9.80;80.40
8103;DHT22;4094;49.948;11.574;2023-11-19T06:18:49;9.80;80.50
8103;DHT22;4094;49.948;11.574;2023-11-19T06:21:17;9.80;80.40
8103;DHT22;4094;49.948;11.574;2023-11-19T06:23:47;9.80;80.50
8103;DHT22;4094;49.948;11.574;2023-11-19T06:26:16;9.80;80.40
8103;DHT22;4094;49.948;11.574;2023-11-19T06:28:46;9.80;80.40
8103;DHT22;4094;49.948;11.574;2023-11-19T06:31:15;9.90;80.50
8103;DHT22;4094;49.948;11.574;2023-11-19T06:33:47;9.90;80.50
8103;DHT22;4094;49.948;11.574;2023-11-19T06:36:16;9.90;80.60
8103;DHT22;4094;49.948;11.574;2023-11-19T06:38:46;9.90;80.60
8103;DHT22;4094;49.948;11.574;2023-11-19T06:41:15;9.90;80.70
8103;DHT22;4094;49.948;11.574;2023-11-19T06:43:46;9.90;80.70
8103;DHT22;4094;49.948;11.574;2023-11-19T06:46:16;9.90;80.70
8103;DHT22;4094;49.948;11.574;2023-11-19T06:48:48;9.90;80.70
8103;DHT22;4094;49.948;11.574;2023-11-19T06:51:17;9.90;80.80
8103;DHT22;4094;49.948;11.574;2023-11-19T06:53:47;9.90;80.80
8103;DHT22;4094;49.948;11.574;2023-11-19T06:56:23;9.90;80.80
8103;DHT22;4094;49.948;11.574;2023-11-19T06:58:53;9.90;80.80
8103;DHT22;4094;49.948;11.574;2023-11-19T07:01:22;10.00;80.80
8103;DHT22;4094;49.948;11.574;2023-11-19T07:03:53;10.00;81.00
8103;DHT22;4094;49.948;11.574;2023-11-19T07:06:22;10.00;80.90
8103;DHT22;4094;49.948;11.574;2023-11-19T07:09:03;10.00;81.00
8103;DHT22;4094;49.948;11.574;2023-11-19T07:11:38;10.10;81.00
8103;DHT22;4094;49.948;11.574;2023-11-19T07:14:08;10.10;81.00
8103;DHT22;4094;49.948;11.574;2023-11-19T07:16:37;10.10;81.00
8103;DHT22;4094;49.948;11.574;2023-11-19T07:19:08;10.10;81.00
8103;DHT22;4094;49.948;11.574;2023-11-19T07:21:40;10.10;81.00
8103;DHT22;4094;49.948;11.574;2023-11-19T07:24:11;10.10;81.00
8103;DHT22;4094;49.948;11.574;2023-11-19T07:26:43;10.10;81.00
8103;DHT22;4094;49.948;11.574;2023-11-19T07:29:12;10.20;81.20
8103;DHT22;4094;49.948;11.574;2023-11-19T07:31:56;10.20;81.20
8103;DHT22;4094;49.948;11.574;2023-11-19T07:34:26;10.20;81.10
8103;DHT22;4094;49.948;11.574;2023-11-19T07:36:56;10.20;81.20
8103;DHT22;4094;49.948;11.574;2023-11-19T07:39:27;10.30;81.30
8103;DHT22;4094;49.948;11.574;2023-11-19T07:41:56;10.30;81.40
8103;DHT22;4094;49.948;11.574;2023-11-19T07:44:25;10.30;81.30
8103;DHT22;4094;49.948;11.574;2023-11-19T07:46:54;10.40;81.50
8103;DHT22;4094;49.948;11.574;2023-11-19T07:49:23;10.40;81.50
8103;DHT22;4094;49.948;11.574;2023-11-19T07:51:54;10.40;81.60
8103;DHT22;4094;49.948;11.574;2023-11-19T07:54:23;10.50;81.80
8103;DHT22;4094;49.948;11.574;2023-11-19T07:56:52;10.50;82.00
8103;DHT22;4094;49.948;11.574;2023-11-19T07:59:21;10.50;82.00
8103;DHT22;4094;49.948;11.574;2023-11-19T08:01:51;10.50;81.90
8103;DHT22;4094;49.948;11.574;2023-11-19T08:04:20;10.50;82.10
8103;DHT22;4094;49.948;11.574;2023-11-19T08:06:49;10.50;82.10
8103;DHT22;4094;49.948;11.574;2023-11-19T08:09:19;10.60;82.20
8103;DHT22;4094;49.948;11.574;2023-11-19T08:11:49;10.60;82.40
8103;DHT22;4094;49.948;11.574;2023-11-19T08:14:18;10.70;82.50
8103;DHT22;4094;49.948;11.574;2023-11-19T08:16:47;10.70;82.40
8103;DHT22;4094;49.948;11.574;2023-11-19T08:19:17;10.80;82.60
8103;DHT22;4094;49.948;11.574;2023-11-19T08:21:46;10.80;82.70
8103;DHT22;4094;49.948;11.574;2023-11-19T08:24:15;10.90;82.90
8103;DHT22;4094;49.948;11.574;2023-11-19T08:26:45;11.00;83.10
8103;DHT22;4094;49.948;11.574;2023-11-19T08:29:30;11.00;83.40
8103;DHT22;4094;49.948;11.574;2023-11-19T08:32:00;11.10;83.70
8103;DHT22;4094;49.948;11.574;2023-11-19T08:34:30;11.20;84.10
8103;DHT22;4094;49.948;11.574;2023-11-19T08:36:59;11.30;84.30
8103;DHT22;4094;49.948;11.574;2023-11-19T08:39:28;11.40;84.40
8103;DHT22;4094;49.948;11.574;2023-11-19T08:42:00;11.50;84.60
8103;DHT22;4094;49.948;11.574;2023-11-19T08:44:29;11.60;84.70
8103;DHT22;4094;49.948;11.574;2023-11-19T08:46:58;11.60;84.60
8103;DHT22;4094;49.948;11.574;2023-11-19T08:49:27;11.70;84.50
8103;DHT22;4094;49.948;11.574;2023-11-19T08:51:57;11.80;84.50
8103;DHT22;4094;49.948;11.574;2023-11-19T08:54:25;11.80;84.50
8103;DHT22;4094;49.948;11.574;2023-11-19T08:56:55;11.90;84.50
8103;DHT22;4094;49.948;11.574;2023-11-19T08:59:25;12.00;84.50
8103;DHT22;4094;49.948;11.574;2023-11-19T09:01:54;12.00;84.70
8103;DHT22;4094;49.948;11.574;2023-11-19T09:04:23;12.10;84.70
8103;DHT22;4094;49.948;11.574;2023-11-19T09:06:53;12.10;84.70
8103;DHT22;4094;49.948;11.574;2023-11-19T09:09:23;12.20;84.70
8103;DHT22;4094;49.948;11.574;2023-11-19T09:11:53;12.30;84.70
8103;DHT22;4094;49.948;11.574;2023-11-19T09:14:22;12.30;85.00
8103;DHT22;4094;49.948;11.574;2023-11-19T09:16:55;12.40;84.60
8103;DHT22;4094;49.948;11.574;2023-11-19T09:19:24;12.40;84.60
8103;DHT22;4094;49.948;11.574;2023-11-19T09:21:53;12.50;84.50
8103;DHT22;4094;49.948;11.574;2023-11-19T09:24:23;12.50;84.50
8103;DHT22;4094;49.948;11.574;2023-11-19T09:26:52;12.60;84.50
8103;DHT22;4094;49.948;11.574;2023-11-19T09:29:22;12.60;84.70
8103;DHT22;4094;49.948;11.574;2023-11-19T09:31:52;12.60;84.80
8103;DHT22;4094;49.948;11.574;2023-11-19T09:34:22;12.70;84.90
8103;DHT22;4094;49.948;11.574;2023-11-19T09:36:51;12.70;85.00
8103;DHT22;4094;49.948;11.574;2023-11-19T09:39:20;12.70;85.00
8103;DHT22;4094;49.948;11.574;2023-11-19T09:41:49;12.80;85.20
8103;DHT22;4094;49.948;11.574;2023-11-19T09:44:19;12.80;85.40
8103;DHT22;4094;49.948;11.574;2023-11-19T09:46:48;12.90;85.70
8103;DHT22;4094;49.948;11.574;2023-11-19T09:49:22;13.00;85.70
8103;DHT22;4094;49.948;11.574;2023-11-19T09:51:57;13.10;85.60
8103;DHT22;4094;49.948;11.574;2023-11-19T09:54:27;13.20;85.50
8103;DHT22;4094;49.948;11.574;2023-11-19T09:56:57;13.20;85.30
8103;DHT22;4094;49.948;11.574;2023-11-19T09:59:30;13.30;85.20
8103;DHT22;4094;49.948;11.574;2023-11-19T10:02:00;13.40;85.00
8103;DHT22;4094;49.948;11.574;2023-11-19T10:04:32;13.40;85.10
8103;DHT22;4094;49.948;11.574;2023-11-19T10:07:05;13.50;85.20
8103;DHT22;4094;49.948;11.574;2023-11-19T10:09:34;13.50;85.20
8103;DHT22;4094;49.948;11.574;2023-11-19T10:12:03;13.60;85.20
8103;DHT22;4094;49.948;11.574;2023-11-19T10:14:35;13.60;85.30
8103;DHT22;4094;49.948;11.574;2023-11-19T10:17:07;13.80;86.20
8103;DHT22;4094;49.948;11.574;2023-11-19T10:19:40;14.00;86.50
8103;DHT22;4094;49.948;11.574;2023-11-19T10:22:10;14.10;85.70
8103;DHT22;4094;49.948;11.574;2023-11-19T10:24:40;14.30;84.90
8103;DHT22;4094;49.948;11.574;2023-11-19T10:27:16;14.40;84.20
8103;DHT22;4094;49.948;11.574;2023-11-19T10:29:45;14.40;83.60
8103;DHT22;4094;49.948;11.574;2023-11-19T10:32:15;14.50;83.30
8103;DHT22;4094;49.948;11.574;2023-11-19T10:35:05;14.50;83.00
8103;DHT22;4094;49.948;11.574;2023-11-19T10:37:35;14.50;82.80
8103;DHT22;4094;49.948;11.574;2023-11-19T10:40:07;14.50;82.60
8103;DHT22;4094;49.948;11.574;2023-11-19T10:42:38;14.40;82.60
8103;DHT22;4094;49.948;11.574;2023-11-19T10:45:22;14.40;82.40
8103;DHT22;4094;49.948;11.574;2023-11-19T10:47:52;14.40;82.40
8103;DHT22;4094;49.948;11.574;2023-11-19T10:50:24;14.40;82.60
8103;DHT22;4094;49.948;11.574;2023-11-19T10:52:56;14.30;82.50
8103;DHT22;4094;49.948;11.574;2023-11-19T10:55:28;14.30;82.70
8103;DHT22;4094;49.948;11.574;2023-11-19T10:57:59;14.30;82.80
8103;DHT22;4094;49.948;11.574;2023-11-19T11:00:29;14.30;82.80
8103;DHT22;4094;49.948;11.574;2023-11-19T11:03:01;14.30;82.80
8103;DHT22;4094;49.948;11.574;2023-11-19T11:05:32;14.30;82.90
8103;DHT22;4094;49.948;11.574;2023-11-19T11:08:04;14.30;83.10
8103;DHT22;4094;49.948;11.574;2023-11-19T11:10:39;14.30;83.10
8103;DHT22;4094;49.948;11.574;2023-11-19T11:13:25;14.20;83.10
8103;DHT22;4094;49.948;11.574;2023-11-19T11:15:57;14.20;83.10
8103;DHT22;4094;49.948;11.574;2023-11-19T11:18:27;14.20;83.20
8103;DHT22;4094;49.948;11.574;2023-11-19T11:21:00;14.10;83.40
8103;DHT22;4094;49.948;11.574;2023-11-19T11:23:53;14.10;83.50
8103;DHT22;4094;49.948;11.574;2023-11-19T11:26:36;14.10;83.80
8103;DHT22;4094;49.948;11.574;2023-11-19T11:29:14;14.10;83.60
8103;DHT22;4094;49.948;11.574;2023-11-19T11:31:55;14.10;83.50
8103;DHT22;4094;49.948;11.574;2023-11-19T11:34:52;14.10;83.70
8103;DHT22;4094;49.948;11.574;2023-11-19T11:37:31;14.10;83.80
8103;DHT22;4094;49.948;11.574;2023-11-19T11:40:02;14.10;84.10
8103;DHT22;4094;49.948;11.574;2023-11-19T11:43:20;14.10;84.30
8103;DHT22;4094;49.948;11.574;2023-11-19T11:46:09;14.20;85.20
8103;DHT22;4094;49.948;11.574;2023-11-19T11:48:43;14.30;84.80
8103;DHT22;4094;49.948;11.574;2023-11-19T11:51:14;14.50;86.00
8103;DHT22;4094;49.948;11.574;2023-11-19T11:53:47;14.70;85.70
8103;DHT22;4094;49.948;11.574;2023-11-19T11:56:17;14.90;85.80
8103;DHT22;4094;49.948;11.574;2023-11-19T11:58:46;15.10;84.80
8103;DHT22;4094;49.948;11.574;2023-11-19T12:01:17;15.30;83.90
8103;DHT22;4094;49.948;11.574;2023-11-19T12:03:50;15.40;83.10
8103;DHT22;4094;49.948;11.574;2023-11-19T12:06:21;15.50;82.80
8103;DHT22;4094;49.948;11.574;2023-11-19T12:08:52;15.50;83.00
8103;DHT22;4094;49.948;11.574;2023-11-19T12:11:23;15.50;82.80
8103;DHT22;4094;49.948;11.574;2023-11-19T12:13:56;15.60;82.30
8103;DHT22;4094;49.948;11.574;2023-11-19T12:16:27;15.60;81.90
8103;DHT22;4094;49.948;11.574;2023-11-19T12:19:02;15.60;82.30
8103;DHT22;4094;49.948;11.574;2023-11-19T12:21:33;15.60;81.70
8103;DHT22;4094;49.948;11.574;2023-11-19T12:24:07;15.50;81.80
8103;DHT22;4094;49.948;11.574;2023-11-19T12:26:37;15.60;81.90
8103;DHT22;4094;49.948;11.574;2023-11-19T12:29:07;15.50;81.50
8103;DHT22;4094;49.948;11.574;2023-11-19T12:31:37;15.50;81.30
8103;DHT22;4094;49.948;11.574;2023-11-19T12:34:08;15.50;81.20
8103;DHT22;4094;49.948;11.574;2023-11-19T12:36:41;15.50;80.90
8103;DHT22;4094;49.948;11.574;2023-11-19T12:39:12;15.40;80.80
8103;DHT22;4094;49.948;11.574;2023-11-19T12:41:49;15.40;80.70
8103;DHT22;4094;49.948;11.574;2023-11-19T12:44:20;15.40;80.50
8103;DHT22;4094;49.948;11.574;2023-11-19T12:47:02;15.40;80.40
8103;DHT22;4094;49.948;11.574;2023-11-19T12:49:32;15.30;80.30
8103;DHT22;4094;49.948;11.574;2023-11-19T12:52:01;15.30;80.40
8103;DHT22;4094;49.948;11.574;2023-11-19T12:54:34;15.20;80.20
8103;DHT22;4094;49.948;11.574;2023-11-19T12:57:05;15.20;80.20
8103;DHT22;4094;49.948;11.574;2023-11-19T12:59:34;15.10;80.20
8103;DHT22;4094;49.948;11.574;2023-11-19T13:02:04;15.10;80.40
8103;DHT22;4094;49.948;11.574;2023-11-19T13:04:34;15.10;80.40
8103;DHT22;4094;49.948;11.574;2023-11-19T13:07:04;15.10;80.30
8103;DHT22;4094;49.948;11.574;2023-11-19T13:09:35;15.00;80.30
8103;DHT22;4094;49.948;11.574;2023-11-19T13:12:12;15.00;80.00
8103;DHT22;4094;49.948;11.574;2023-11-19T13:14:42;15.00;80.00
8103;DHT22;4094;49.948;11.574;2023-11-19T13:17:14;15.00;80.20
8103;DHT22;4094;49.948;11.574;2023-11-19T13:19:43;15.00;80.50
8103;DHT22;4094;49.948;11.574;2023-11-19T13:22:13;15.00;80.60
8103;DHT22;4094;49.948;11.574;2023-11-19T13:24:43;15.00;80.50
8103;DHT22;4094;49.948;11.574;2023-11-19T13:27:13;15.00;80.20
8103;DHT22;4094;49.948;11.574;2023-11-19T13:29:42;15.00;80.10
8103;DHT22;4094;49.948;11.574;2023-11-19T13:32:12;15.00;80.90
8103;DHT22;4094;49.948;11.574;2023-11-19T13:34:41;15.00;80.00
8103;DHT22;4094;49.948;11.574;2023-11-19T13:37:10;15.00;80.00
8103;DHT22;4094;49.948;11.574;2023-11-19T13:39:43;15.10;79.70
8103;DHT22;4094;49.948;11.574;2023-11-19T13:42:12;15.10;79.40
8103;DHT22;4094;49.948;11.574;2023-11-19T13:44:41;15.10;79.40
8103;DHT22;4094;49.948;11.574;2023-11-19T13:47:11;15.00;79.20
8103;DHT22;4094;49.948;11.574;2023-11-19T13:49:41;15.00;79.00
8103;DHT22;4094;49.948;11.574;2023-11-19T13:52:11;15.00;78.90
8103;DHT22;4094;49.948;11.574;2023-11-19T13:54:40;15.00;78.90
8103;DHT22;4094;49.948;11.574;2023-11-19T13:57:11;14.90;78.80
8103;DHT22;4094;49.948;11.574;2023-11-19T13:59:40;14.90;78.90
8103;DHT22;4094;49.948;11.574;2023-11-19T14:02:10;14.90;78.90
8103;DHT22;4094;49.948;11.574;2023-11-19T14:04:39;14.90;79.00
8103;DHT22;4094;49.948;11.574;2023-11-19T14:07:09;14.90;79.10
8103;DHT22;4094;49.948;11.574;2023-11-19T14:09:38;14.90;79.20
8103;DHT22;4094;49.948;11.574;2023-11-19T14:12:11;14.90;79.20
8103;DHT22;4094;49.948;11.574;2023-11-19T14:14:40;14.90;79.20
8103;DHT22;4094;49.948;11.574;2023-11-19T14:17:10;14.90;78.90
8103;DHT22;4094;49.948;11.574;2023-11-19T14:19:42;14.90;78.70
8103;DHT22;4094;49.948;11.574;2023-11-19T14:22:12;14.90;78.50
8103;DHT22;4094;49.948;11.574;2023-11-19T14:24:41;14.90;78.50
8103;DHT22;4094;49.948;11.574;2023-11-19T14:27:12;14.90;78.30
8103;DHT22;4094;49.948;11.574;2023-11-19T14:29:41;14.90;78.30
8103;DHT22;4094;49.948;11.574;2023-11-19T14:32:11;14.90;78.20
8103;DHT22;4094;49.948;11.574;2023-11-19T14:34:40;14.90;77.80
8103;DHT22;4094;49.948;11.574;2023-11-19T14:37:10;14.80;77.70
8103;DHT22;4094;49.948;11.574;2023-11-19T14:39:39;14.80;77.70
8103;DHT22;4094;49.948;11.574;2023-11-19T14:42:08;14.80;77.60
8103;DHT22;4094;49.948;11.574;2023-11-19T14:44:39;14.80;77.60
8103;DHT22;4094;49.948;11.574;2023-11-19T14:47:08;14.70;77.30
8103;DHT22;4094;49.948;11.574;2023-11-19T14:49:38;14.70;77.30
8103;DHT22;4094;49.948;11.574;2023-11-19T14:52:07;14.70;77.20
8103;DHT22;4094;49.948;11.574;2023-11-19T14:54:39;14.60;77.30
8103;DHT22;4094;49.948;11.574;2023-11-19T14:57:08;14.60;77.30
8103;DHT22;4094;49.948;11.574;2023-11-19T14:59:39;14.60;77.30
8103;DHT22;4094;49.948;11.574;2023-11-19T15:02:08;14.60;77.30
8103;DHT22;4094;49.948;11.574;2023-11-19T15:04:37;14.50;77.20
8103;DHT22;4094;49.948;11.574;2023-11-19T15:07:06;14.50;77.10
8103;DHT22;4094;49.948;11.574;2023-11-19T15:09:35;14.50;77.10
8103;DHT22;4094;49.948;11.574;2023-11-19T15:12:05;14.50;77.20
8103;DHT22;4094;49.948;11.574;2023-11-19T15:14:34;14.50;77.20
8103;DHT22;4094;49.948;11.574;2023-11-19T15:17:05;14.40;77.10
8103;DHT22;4094;49.948;11.574;2023-11-19T15:19:35;14.40;77.10
8103;DHT22;4094;49.948;11.574;2023-11-19T15:22:05;14.40;77.30
8103;DHT22;4094;49.948;11.574;2023-11-19T15:24:34;14.40;77.30
8103;DHT22;4094;49.948;11.574;2023-11-19T15:27:04;14.40;78.20
8103;DHT22;4094;49.948;11.574;2023-11-19T15:29:37;14.30;77.40
8103;DHT22;4094;49.948;11.574;2023-11-19T15:32:08;14.30;77.50
8103;DHT22;4094;49.948;11.574;2023-11-19T15:34:38;14.30;77.60
8103;DHT22;4094;49.948;11.574;2023-11-19T15:37:09;14.20;77.70
8103;DHT22;4094;49.948;11.574;2023-11-19T15:39:41;14.20;77.70
8103;DHT22;4094;49.948;11.574;2023-11-19T15:42:10;14.20;78.00
8103;DHT22;4094;49.948;11.574;2023-11-19T15:44:40;14.20;78.10
8103;DHT22;4094;49.948;11.574;2023-11-19T15:47:10;14.10;78.00
8103;DHT22;4094;49.948;11.574;2023-11-19T15:49:41;14.10;78.10
8103;DHT22;4094;49.948;11.574;2023-11-19T15:52:10;14.10;78.20
8103;DHT22;4094;49.948;11.574;2023-11-19T15:54:42;14.00;78.10
8103;DHT22;4094;49.948;11.574;2023-11-19T15:57:12;13.90;78.10
8103;DHT22;4094;49.948;11.574;2023-11-19T15:59:41;13.90;78.20
8103;DHT22;4094;49.948;11.574;2023-11-19T16:02:12;13.80;78.20
8103;DHT22;4094;49.948;11.574;2023-11-19T16:04:41;13.70;78.40
8103;DHT22;4094;49.948;11.574;2023-11-19T16:07:15;13.70;78.50
8103;DHT22;4094;49.948;11.574;2023-11-19T16:09:44;13.60;78.50
8103;DHT22;4094;49.948;11.574;2023-11-19T16:12:13;13.60;78.60
8103;DHT22;4094;49.948;11.574;2023-11-19T16:14:42;13.50;78.60